Time;durP1;ratioP1;P1;durP2;ratioP2;P2;SDS_P1;SDS_P2;PMS_P1;PMS_P2;Temp;Humidity;BMP_temperature;BMP_pressure;BME280_temperature;BME280_humidity;BME280_pressure;Samples;Min_cycle;Max_cycle;Signal;HPM_P1;HPM_P2
2023/01/26 00:00:37;;;;;;;8.35;6.05;;;;;;;0.70;69.63;95066.00;4147073;28;20050;-64
2023/01/26 00:02:38;;;;;;;8.75;5.20;;;;;;;0.66;69.37;95068.88;4145904;28;20151;-61
2023/01/26 00:04:40;;;;;;;8.60;5.55;;;;;;;0.68;69.71;95074.75;4134386;28;20133;-60
2023/01/26 00:06:42;;;;;;;10.68;5.95;;;;;;;0.71;69.87;95072.00;4145659;28;20088;-60
2023/01/26 00:08:46;;;;;;;9.15;5.57;;;;;;;0.48;69.48;95065.63;4136330;28;20569;-60
2023/01/26 00:10:50;;;;;;;9.40;5.47;;;;;;;0.49;69.85;95072.44;4144154;28;20111;-61
2023/01/26 00:12:52;;;;;;;9.55;5.15;;;;;;;0.51;69.73;95071.41;4145807;28;20046;-61
2023/01/26 00:14:54;;;;;;;8.32;5.40;;;;;;;0.59;70.02;95079.53;4146072;28;20492;-62
2023/01/26 00:16:55;;;;;;;8.55;5.80;;;;;;;0.62;69.58;95081.09;4146914;28;20500;-59
2023/01/26 00:18:57;;;;;;;8.52;5.53;;;;;;;0.61;68.96;95084.59;4146218;28;20145;-61
2023/01/26 00:21:00;;;;;;;7.20;5.55;;;;;;;0.51;69.60;95076.56;4128944;28;20085;-62
2023/01/26 00:23:02;;;;;;;9.65;5.80;;;;;;;0.57;69.65;95086.53;4146561;28;20046;-60
2023/01/26 00:25:04;;;;;;;8.95;5.80;;;;;;;0.65;69.72;95072.38;4146012;28;20460;-63
2023/01/26 00:27:05;;;;;;;8.52;5.45;;;;;;;0.64;68.97;95074.09;4145317;28;20062;-61
2023/01/26 00:29:08;;;;;;;10.32;5.80;;;;;;;0.69;69.34;95074.69;4145894;28;20104;-62
2023/01/26 00:31:16;;;;;;;9.40;6.18;;;;;;;0.70;68.68;95050.53;4128619;28;20054;-63
2023/01/26 00:33:18;;;;;;;7.95;5.13;;;;;;;0.51;69.00;95050.78;4145084;28;20050;-63
2023/01/26 00:35:20;;;;;;;8.25;5.70;;;;;;;0.50;69.66;95063.78;4144839;28;20050;-62
2023/01/26 00:37:21;;;;;;;7.53;5.45;;;;;;;0.34;69.79;95054.34;4134199;28;20057;-63
2023/01/26 00:39:23;;;;;;;10.30;6.50;;;;;;;0.43;69.93;95041.84;4139905;28;20108;-62
2023/01/26 00:43:45;;;;;;;10.40;6.30;;;;;;;0.43;69.73;95041.84;4145271;28;20744;-62
2023/01/26 00:45:46;;;;;;;9.95;5.70;;;;;;;0.37;69.53;95043.06;4141799;28;20042;-64
2023/01/26 00:47:48;;;;;;;8.85;5.85;;;;;;;0.42;69.49;95046.19;4132640;28;20060;-63
2023/01/26 00:49:50;;;;;;;9.68;6.05;;;;;;;0.41;69.44;95039.38;4146208;28;20045;-62
2023/01/26 00:51:51;;;;;;;10.18;6.30;;;;;;;0.40;69.60;95048.84;4128605;28;20050;-63
2023/01/26 00:53:53;;;;;;;9.60;6.32;;;;;;;0.47;69.08;95044.16;4145587;28;20057;-64
2023/01/26 00:55:56;;;;;;;11.02;5.90;;;;;;;0.48;69.01;95047.59;4146077;28;20084;-63
2023/01/26 00:57:59;;;;;;;9.55;6.40;;;;;;;0.40;69.06;95038.53;4131089;28;20552;-65
2023/01/26 01:00:01;;;;;;;10.15;6.63;;;;;;;0.32;69.65;95027.84;4136375;28;20053;-64
2023/01/26 01:02:03;;;;;;;9.48;6.60;;;;;;;0.21;69.74;95032.78;4142903;28;20057;-64
2023/01/26 01:04:04;;;;;;;10.18;6.38;;;;;;;0.29;69.73;95033.16;4143061;28;20081;-63
2023/01/26 01:06:06;;;;;;;10.32;6.50;;;;;;;0.36;69.90;95025.91;4145644;28;20042;-62
2023/01/26 01:08:07;;;;;;;10.48;6.78;;;;;;;0.42;69.58;95015.25;4145941;28;20089;-63
2023/01/26 01:10:10;;;;;;;10.00;6.25;;;;;;;0.39;69.41;95023.19;4142559;28;20050;-64
2023/01/26 01:12:12;;;;;;;10.32;6.40;;;;;;;0.36;69.17;95026.72;4140968;28;20109;-63
2023/01/26 01:14:14;;;;;;;11.45;6.57;;;;;;;0.35;69.34;95024.25;4136876;28;20106;-64
2023/01/26 01:16:15;;;;;;;8.95;6.38;;;;;;;0.45;69.14;95024.53;4135680;28;20042;-63
2023/01/26 01:18:17;;;;;;;9.38;6.85;;;;;;;0.57;68.95;95023.84;4143632;28;20062;-62
2023/01/26 01:20:19;;;;;;;11.18;7.28;;;;;;;0.63;67.96;95020.91;4128684;28;20085;-63
2023/01/26 01:22:21;;;;;;;7.85;5.65;;;;;;;0.73;68.06;95016.84;4138950;28;20054;-62
2023/01/26 01:24:22;;;;;;;9.68;5.75;;;;;;;0.39;68.22;95015.44;4129641;28;20489;-62
2023/01/26 01:26:25;;;;;;;9.77;5.95;;;;;;;0.34;68.53;95009.72;4141893;28;20129;-64
2023/01/26 01:28:27;;;;;;;9.13;6.13;;;;;;;0.29;68.94;95028.00;4145248;28;20384;-63
2023/01/26 01:30:29;;;;;;;10.10;6.45;;;;;;;0.20;69.01;95024.22;4146093;28;20049;-63
2023/01/26 01:32:30;;;;;;;8.95;5.72;;;;;;;0.21;69.35;95014.75;4145924;28;20173;-63
2023/01/26 01:34:32;;;;;;;10.20;5.90;;;;;;;0.32;68.99;95017.56;4138467;28;20073;-65
2023/01/26 01:36:33;;;;;;;9.48;6.03;;;;;;;0.31;68.88;95004.75;4146021;28;20132;-64
2023/01/26 01:38:35;;;;;;;10.07;6.45;;;;;;;0.42;68.82;95014.44;4131815;28;20054;-62
2023/01/26 01:40:42;;;;;;;7.93;5.63;;;;;;;0.52;68.10;95007.81;4133122;28;20583;-63
2023/01/26 01:42:47;;;;;;;9.98;6.28;;;;;;;0.66;68.26;95007.81;4120053;28;20059;-63
2023/01/26 01:45:20;;;;;;;7.70;5.05;;;;;;;0.76;67.41;95008.91;4137134;28;20083;-62
2023/01/26 01:47:25;;;;;;;9.63;5.90;;;;;;;0.52;68.11;95000.91;4132907;28;20496;-62
2023/01/26 01:49:30;;;;;;;8.00;6.03;;;;;;;0.55;68.50;94999.88;4130940;28;20050;-62
2023/01/26 01:51:50;;;;;;;6.93;5.15;;;;;;;0.44;67.94;95007.44;4139574;28;20049;-62
2023/01/26 01:53:53;;;;;;;8.98;5.13;;;;;;;0.44;68.27;94999.69;4130944;28;20504;-63
2023/01/26 01:55:57;;;;;;;11.52;5.80;;;;;;;0.39;68.43;94999.97;4145347;28;20085;-63
2023/01/26 01:58:00;;;;;;;9.43;6.15;;;;;;;0.47;67.83;95002.09;4121240;28;20478;-64
2023/01/26 02:00:07;;;;;;;8.30;5.72;;;;;;;0.55;67.46;94989.56;4130651;28;20097;-63
2023/01/26 02:02:09;;;;;;;8.60;5.65;;;;;;;0.39;67.43;94995.66;4130460;28;20126;-64
2023/01/26 02:04:11;;;;;;;7.95;5.60;;;;;;;0.36;68.13;95000.97;4145004;28;20100;-61
2023/01/26 02:06:15;;;;;;;9.18;6.28;;;;;;;0.45;67.61;94994.44;4130846;28;20531;-62
2023/01/26 02:08:18;;;;;;;9.13;5.82;;;;;;;0.49;67.40;94992.50;4130298;28;20073;-63
2023/01/26 02:10:20;;;;;;;8.88;5.75;;;;;;;0.46;67.24;94985.81;4131254;28;20085;-63
2023/01/26 02:12:26;;;;;;;8.52;5.78;;;;;;;0.58;67.68;94985.06;4146219;28;20140;-63
2023/01/26 02:14:28;;;;;;;8.40;5.38;;;;;;;0.58;66.82;94981.66;4130818;28;20050;-64
2023/01/26 02:16:30;;;;;;;7.47;4.90;;;;;;;0.51;66.86;94972.63;4144234;28;20116;-63
2023/01/26 02:18:31;;;;;;;8.65;5.00;;;;;;;0.52;66.90;94974.31;4143719;28;20050;-61
2023/01/26 02:20:46;;;;;;;7.00;5.15;;;;;;;0.49;67.58;94964.97;4138973;28;20105;-62
2023/01/26 02:22:53;;;;;;;7.47;5.35;;;;;;;0.54;67.62;94962.97;4130834;28;20050;-64
2023/01/26 02:24:58;;;;;;;7.22;5.55;;;;;;;0.38;67.51;94962.22;4130332;28;20085;-63
2023/01/26 02:27:00;;;;;;;8.27;5.28;;;;;;;0.38;67.58;94950.16;4145985;28;20054;-63
2023/01/26 02:29:03;;;;;;;8.30;4.70;;;;;;;0.39;67.54;94949.25;4146807;28;20046;-63
2023/01/26 02:31:05;;;;;;;6.53;4.88;;;;;;;0.36;67.41;94948.59;4142774;28;20057;-64
2023/01/26 02:33:14;;;;;;;8.50;5.57;;;;;;;0.18;67.68;94951.34;4135481;28;20088;-63
2023/01/26 02:35:15;;;;;;;8.10;4.97;;;;;;;0.24;68.18;94945.00;4145048;28;20049;-64
2023/01/26 02:37:17;;;;;;;10.55;5.53;;;;;;;0.20;68.46;94948.69;4139108;28;20080;-62
2023/01/26 02:39:31;;;;;;;7.63;4.97;;;;;;;0.24;67.94;94941.59;4147307;28;20042;-63
2023/01/26 02:43:53;;;;;;;8.07;5.88;;;;;;;0.31;68.02;94932.59;4134952;28;20050;-63
2023/01/26 02:45:54;;;;;;;7.55;5.43;;;;;;;0.31;67.93;94935.16;4143515;28;20053;-62
2023/01/26 02:47:56;;;;;;;9.73;5.50;;;;;;;0.39;67.58;94931.22;4131921;28;20050;-62
2023/01/26 02:49:59;;;;;;;7.50;5.38;;;;;;;0.38;68.12;94918.41;4131772;28;20383;-62
2023/01/26 02:52:01;;;;;;;9.10;5.57;;;;;;;0.38;67.76;94915.84;4141588;28;20107;-61
2023/01/26 02:54:02;;;;;;;7.95;5.50;;;;;;;0.47;67.42;94924.75;4128341;28;20054;-64
2023/01/26 02:56:04;;;;;;;7.50;5.55;;;;;;;0.38;67.70;94914.06;4144840;28;20392;-64
2023/01/26 02:58:06;;;;;;;8.35;5.70;;;;;;;0.39;67.61;94908.00;4146188;28;20042;-64
2023/01/26 03:00:11;;;;;;;7.30;5.13;;;;;;;0.34;67.49;94914.34;4147183;28;20750;-64
2023/01/26 03:02:14;;;;;;;7.15;4.70;;;;;;;0.37;67.43;94907.28;4130660;28;20488;-63
2023/01/26 03:04:16;;;;;;;8.48;4.95;;;;;;;0.33;67.82;94899.81;4146132;28;20447;-64
2023/01/26 03:06:17;;;;;;;9.88;5.03;;;;;;;0.33;67.91;94908.38;4136567;28;20093;-61
2023/01/26 03:08:19;;;;;;;8.75;5.45;;;;;;;0.34;67.63;94902.28;4141957;28;20484;-65
2023/01/26 03:10:23;;;;;;;6.55;4.57;;;;;;;0.24;67.96;94913.25;4147373;28;20108;-66
2023/01/26 03:12:25;;;;;;;6.47;4.70;;;;;;;0.17;68.01;94903.31;4147029;28;20052;-64
2023/01/26 03:14:26;;;;;;;7.90;5.25;;;;;;;0.22;68.62;94892.75;4147318;28;20635;-62
2023/01/26 03:16:28;;;;;;;8.10;5.25;;;;;;;0.29;67.98;94894.03;4147500;28;20392;-65
2023/01/26 03:27:50;;;;;;;7.20;5.40;;;;;;;0.06;68.68;94892.00;4146635;28;20388;-62
2023/01/26 03:29:52;;;;;;;7.95;5.00;;;;;;;0.19;68.39;94880.03;4146712;28;20100;-61
2023/01/26 03:31:54;;;;;;;8.27;5.15;;;;;;;0.35;67.61;94877.38;4147111;28;20053;-62
2023/01/26 03:33:56;;;;;;;9.27;5.43;;;;;;;0.32;67.56;94888.69;4139357;28;20046;-61
2023/01/26 03:35:57;;;;;;;9.27;5.15;;;;;;;0.32;67.57;94870.66;4131711;28;20424;-61
2023/01/26 03:37:59;;;;;;;8.23;5.30;;;;;;;0.40;67.51;94877.91;4130822;28;20054;-61
2023/01/26 03:56:31;;;;;;;6.55;4.95;;;;;;;0.43;67.10;94861.44;4139651;28;20096;-61
2023/01/26 03:58:32;;;;;;;7.80;5.47;;;;;;;0.51;66.77;94861.78;4141361;28;20050;-60
2023/01/26 04:00:34;;;;;;;6.82;4.95;;;;;;;0.49;67.09;94855.91;4132104;28;20050;-62
2023/01/26 04:09:40;;;;;;;7.65;5.18;;;;;;;0.67;65.97;94841.88;4143956;28;20050;-62
2023/01/26 04:11:42;;;;;;;6.85;4.90;;;;;;;0.58;66.65;94839.84;4146287;28;20050;-62
2023/01/26 04:23:05;;;;;;;6.82;5.20;;;;;;;0.33;68.02;94815.59;4134622;28;20459;-62
2023/01/26 04:25:08;;;;;;;9.82;4.80;;;;;;;0.31;68.05;94803.75;4146265;28;20084;-62
2023/01/26 04:27:10;;;;;;;8.00;4.90;;;;;;;0.31;68.16;94798.59;4145235;28;20053;-62
2023/01/26 04:29:13;;;;;;;7.90;5.10;;;;;;;0.33;67.76;94807.06;4146248;28;20050;-64
2023/01/26 04:31:15;;;;;;;6.75;5.38;;;;;;;0.42;67.87;94805.66;4136335;28;20045;-61
2023/01/26 04:33:17;;;;;;;8.70;5.07;;;;;;;0.37;67.81;94800.78;4134118;28;20050;-62
2023/01/26 04:35:18;;;;;;;7.55;4.60;;;;;;;0.35;67.52;94806.03;4134105;28;20053;-62
2023/01/26 04:37:21;;;;;;;7.68;5.15;;;;;;;0.22;68.06;94807.72;4135510;28;20101;-60
2023/01/26 04:39:22;;;;;;;7.13;5.38;;;;;;;0.14;67.92;94804.78;4144041;28;20180;-62
2023/01/26 04:41:24;;;;;;;7.78;5.55;;;;;;;0.14;68.30;94810.75;4133949;28;20050;-62
2023/01/26 04:43:26;;;;;;;7.13;5.40;;;;;;;0.08;68.69;94808.53;4142570;28;20052;-64
2023/01/26 04:45:27;;;;;;;7.45;5.05;;;;;;;0.13;68.60;94810.84;4139838;28;20064;-63
2023/01/26 04:47:29;;;;;;;7.53;5.70;;;;;;;0.21;68.40;94821.50;4128605;28;20121;-62
2023/01/26 04:49:31;;;;;;;8.93;6.15;;;;;;;0.33;68.20;94818.19;4133383;28;20471;-62
2023/01/26 04:51:33;;;;;;;8.65;5.20;;;;;;;0.34;67.79;94819.81;4146414;28;20527;-62
2023/01/26 04:53:34;;;;;;;9.63;5.28;;;;;;;0.28;68.29;94816.81;4145560;28;20140;-59
2023/01/26 04:55:36;;;;;;;10.02;5.65;;;;;;;0.35;68.19;94816.34;4146067;28;20054;-64
2023/01/26 04:57:38;;;;;;;7.40;5.40;;;;;;;0.35;67.96;94810.38;4145373;28;20396;-64
2023/01/26 04:59:39;;;;;;;7.32;5.50;;;;;;;0.38;67.97;94823.88;4144643;28;20049;-63
2023/01/26 05:01:41;;;;;;;8.73;5.25;;;;;;;0.40;67.85;94811.72;4145411;28;20602;-64
2023/01/26 05:03:43;;;;;;;7.53;5.63;;;;;;;0.48;67.85;94815.59;4144541;28;20050;-63
2023/01/26 05:05:48;;;;;;;7.13;5.30;;;;;;;0.53;67.59;94816.94;4129966;28;20675;-63
2023/01/26 05:07:52;;;;;;;7.55;5.22;;;;;;;0.43;67.06;94815.03;4128040;28;20539;-63
2023/01/26 05:09:54;;;;;;;7.53;5.13;;;;;;;0.46;67.34;94812.28;4144774;28;20104;-64
2023/01/26 05:12:32;;;;;;;5.88;4.30;;;;;;;0.28;66.89;94814.22;4145038;28;20054;-65
2023/01/26 05:14:17;;;;;;;7.60;5.07;;;;;;;0.13;67.74;94803.09;4133195;28;20058;-64
2023/01/26 05:16:19;;;;;;;7.88;5.43;;;;;;;0.10;68.12;94811.84;4146004;28;20072;-64
2023/01/26 05:18:21;;;;;;;6.78;4.93;;;;;;;0.23;68.22;94811.13;4140666;28;20057;-62
2023/01/26 05:20:22;;;;;;;7.35;5.47;;;;;;;0.37;67.97;94809.34;4136028;28;20192;-63
2023/01/26 05:22:24;;;;;;;6.47;4.95;;;;;;;0.43;67.06;94807.31;4148225;28;20061;-64
2023/01/26 05:24:26;;;;;;;8.82;5.78;;;;;;;0.46;67.28;94810.53;4138613;28;20096;-66
2023/01/26 05:26:27;;;;;;;8.43;5.72;;;;;;;0.54;67.11;94808.31;4133746;28;20066;-64
2023/01/26 05:28:29;;;;;;;10.00;5.80;;;;;;;0.52;66.63;94810.16;4134761;28;20050;-64
2023/01/26 05:30:31;;;;;;;7.10;5.13;;;;;;;0.45;66.86;94802.88;4136972;28;20137;-64
2023/01/26 05:32:32;;;;;;;6.88;4.97;;;;;;;0.37;67.65;94804.19;4147350;28;20054;-64
2023/01/26 05:34:34;;;;;;;7.45;4.70;;;;;;;0.37;67.40;94805.94;4141593;28;20089;-61
2023/01/26 05:36:35;;;;;;;7.45;5.00;;;;;;;0.35;67.66;94798.31;4151294;28;20085;-63
2023/01/26 05:38:37;;;;;;;7.70;5.20;;;;;;;0.37;67.63;94799.03;4149345;28;20396;-65
2023/01/26 05:40:39;;;;;;;7.28;5.57;;;;;;;0.45;67.03;94790.81;4140148;28;20057;-65
2023/01/26 05:42:42;;;;;;;7.80;5.45;;;;;;;0.46;67.12;94800.22;4150529;28;20483;-62
2023/01/26 05:44:44;;;;;;;7.65;5.82;;;;;;;0.54;67.13;94798.00;4133211;28;20049;-64
2023/01/26 05:46:46;;;;;;;8.45;6.10;;;;;;;0.57;66.56;94795.22;4142919;28;20070;-63
2023/01/26 05:48:47;;;;;;;6.75;5.18;;;;;;;0.68;66.68;94799.69;4145642;28;20479;-63
2023/01/26 05:50:49;;;;;;;8.68;6.25;;;;;;;0.62;66.61;94800.06;4151256;28;20088;-63
2023/01/26 05:52:50;;;;;;;8.02;6.10;;;;;;;0.56;66.43;94797.88;4151576;28;20419;-64
2023/01/26 05:54:52;;;;;;;8.48;5.78;;;;;;;0.54;66.71;94802.31;4150167;28;20078;-65
2023/01/26 05:56:56;;;;;;;8.40;5.97;;;;;;;0.58;66.80;94803.75;4150395;28;20484;-64
2023/01/26 05:58:57;;;;;;;8.05;6.00;;;;;;;0.73;66.65;94805.41;4148760;28;20054;-65
2023/01/26 06:01:03;;;;;;;8.23;5.65;;;;;;;0.84;66.38;94798.72;4140801;28;20050;-62
2023/01/26 06:03:04;;;;;;;10.15;6.93;;;;;;;0.92;66.27;94802.47;4150005;28;20058;-63
2023/01/26 06:05:07;;;;;;;11.90;6.72;;;;;;;0.94;65.85;94804.94;4151122;28;20049;-63
2023/01/26 06:07:09;;;;;;;9.82;6.70;;;;;;;0.91;65.42;94800.81;4150752;28;20046;-64
2023/01/26 06:09:10;;;;;;;11.27;7.45;;;;;;;0.93;65.66;94804.13;4150528;28;20092;-64
2023/01/26 06:11:12;;;;;;;11.10;7.65;;;;;;;1.02;65.67;94808.69;4150435;28;20488;-65
2023/01/26 06:13:14;;;;;;;9.88;6.68;;;;;;;1.02;65.35;94792.38;4140507;28;20042;-63
2023/01/26 06:15:15;;;;;;;9.70;7.15;;;;;;;1.09;65.31;94787.66;4147589;28;20159;-61
2023/01/26 06:17:17;;;;;;;10.73;7.00;;;;;;;1.06;64.93;94783.53;4150866;28;20083;-64
2023/01/26 06:19:19;;;;;;;10.05;7.07;;;;;;;0.89;65.18;94788.94;4143884;28;20045;-61
2023/01/26 06:21:21;;;;;;;12.05;8.25;;;;;;;0.78;65.27;94790.47;4150928;28;20073;-64
2023/01/26 06:23:22;;;;;;;10.52;7.03;;;;;;;0.69;66.20;94790.19;4143929;28;20042;-64
2023/01/26 06:25:24;;;;;;;13.25;7.82;;;;;;;0.73;66.36;94789.09;4144364;28;20054;-65
2023/01/26 06:27:26;;;;;;;12.23;7.97;;;;;;;0.76;66.32;94782.00;4148103;28;20456;-63
2023/01/26 06:29:28;;;;;;;10.70;6.97;;;;;;;0.72;66.13;94780.53;4140937;28;20054;-64
2023/01/26 06:31:30;;;;;;;12.45;8.10;;;;;;;0.78;65.95;94789.63;4139532;28;20500;-62
2023/01/26 06:33:33;;;;;;;11.00;7.55;;;;;;;0.79;66.16;94776.63;4148401;28;20233;-63
2023/01/26 06:35:35;;;;;;;9.80;6.95;;;;;;;0.85;65.70;94780.56;4145287;28;20081;-64
2023/01/26 06:37:37;;;;;;;12.82;7.50;;;;;;;0.85;65.35;94766.84;4138455;28;20575;-64
2023/01/26 06:39:40;;;;;;;11.35;8.18;;;;;;;0.94;65.27;94766.25;4147387;28;20058;-63
2023/01/26 06:41:43;;;;;;;12.80;7.70;;;;;;;0.93;64.91;94772.34;4147209;28;20049;-64
2023/01/26 06:43:46;;;;;;;12.85;7.85;;;;;;;0.95;64.96;94778.25;4138262;28;20058;-63
2023/01/26 06:45:48;;;;;;;12.82;8.02;;;;;;;0.96;65.25;94767.81;4133530;28;20050;-61
2023/01/26 06:47:50;;;;;;;11.23;7.88;;;;;;;1.00;65.78;94769.25;4144898;28;20066;-65
2023/01/26 06:49:53;;;;;;;14.40;9.50;;;;;;;1.16;67.40;94781.16;4138489;28;20075;-63
2023/01/26 06:52:03;;;;;;;11.50;8.38;;;;;;;1.13;64.73;94771.88;4148299;28;20496;-63
2023/01/26 06:54:04;;;;;;;11.25;7.25;;;;;;;1.16;64.77;94774.28;4133249;28;20053;-63
2023/01/26 06:56:06;;;;;;;15.88;8.60;;;;;;;1.10;65.29;94771.25;4136663;28;20057;-65
2023/01/26 06:58:08;;;;;;;13.60;8.45;;;;;;;0.99;64.64;94757.31;4147127;28;20053;-64
2023/01/26 07:00:11;;;;;;;14.50;8.25;;;;;;;1.07;65.24;94753.41;4147471;28;20082;-64
2023/01/26 07:02:18;;;;;;;12.07;7.30;;;;;;;0.91;64.97;94762.13;4145459;28;20049;-66
2023/01/26 07:04:24;;;;;;;10.52;7.80;;;;;;;0.91;65.43;94753.56;4135960;28;20130;-64
2023/01/26 07:06:26;;;;;;;12.98;8.15;;;;;;;0.95;65.31;94752.44;4144352;28;20452;-64
2023/01/26 07:08:28;;;;;;;13.75;8.15;;;;;;;0.96;65.60;94752.31;4142989;28;20050;-65
2023/01/26 07:10:29;;;;;;;9.85;7.13;;;;;;;0.95;65.21;94752.44;4140305;28;20079;-65
2023/01/26 07:12:42;;;;;;;15.88;8.57;;;;;;;1.02;65.16;94745.97;4142375;28;20093;-64
2023/01/26 07:14:43;;;;;;;11.88;8.90;;;;;;;1.01;65.63;94744.28;4143974;28;20057;-64
2023/01/26 07:16:45;;;;;;;10.75;7.50;;;;;;;0.86;65.85;94755.59;4132075;28;20512;-63
2023/01/26 07:18:46;;;;;;;11.32;7.70;;;;;;;0.95;65.79;94750.69;4141447;28;20054;-65
2023/01/26 07:20:48;;;;;;;12.50;7.53;;;;;;;0.86;65.47;94750.44;4147781;28;20477;-62
2023/01/26 07:22:50;;;;;;;14.13;9.05;;;;;;;0.94;65.91;94748.19;4147702;28;20447;-65
2023/01/26 07:24:52;;;;;;;12.02;8.10;;;;;;;0.98;65.85;94744.50;4146903;28;20054;-64
2023/01/26 07:26:54;;;;;;;12.00;7.95;;;;;;;1.02;65.57;94740.78;4146632;28;20046;-64
2023/01/26 07:28:56;;;;;;;11.18;8.00;;;;;;;1.12;66.03;94744.44;4146733;28;20049;-63
2023/01/26 07:30:58;;;;;;;13.52;7.28;;;;;;;1.23;65.48;94741.16;4147710;28;20057;-64
2023/01/26 07:33:00;;;;;;;11.95;8.13;;;;;;;1.21;65.62;94738.66;4147567;28;20475;-63
2023/01/26 07:35:02;;;;;;;11.25;7.88;;;;;;;1.25;64.81;94747.03;4141406;28;20053;-63
2023/01/26 07:37:04;;;;;;;11.15;7.95;;;;;;;1.24;65.01;94737.63;4147109;28;20058;-64
2023/01/26 07:39:06;;;;;;;12.23;7.70;;;;;;;1.21;64.95;94740.41;4146951;28;20057;-64
2023/01/26 07:41:11;;;;;;;13.98;8.13;;;;;;;1.21;64.44;94730.91;4147860;28;20046;-64
2023/01/26 07:43:14;;;;;;;16.35;8.27;;;;;;;1.25;65.02;94728.97;4145511;28;20053;-64
2023/01/26 07:45:18;;;;;;;10.95;7.13;;;;;;;1.20;65.20;94731.81;4146958;28;20050;-65
2023/01/26 07:47:20;;;;;;;11.25;7.65;;;;;;;1.18;65.50;94733.72;4130244;28;20042;-64
2023/01/26 07:49:21;;;;;;;10.32;6.70;;;;;;;1.30;64.93;94728.66;4145301;28;20085;-67
2023/01/26 07:51:23;;;;;;;10.93;7.00;;;;;;;1.37;64.26;94729.88;4138240;28;20419;-65
2023/01/26 07:53:27;;;;;;;14.43;7.07;;;;;;;1.24;65.22;94737.63;4139840;28;20502;-64
2023/01/26 07:55:29;;;;;;;10.18;6.70;;;;;;;1.25;65.09;94739.28;4139072;28;20133;-64
2023/01/26 07:57:32;;;;;;;11.30;6.93;;;;;;;1.31;65.06;94732.88;4146302;28;20385;-64
2023/01/26 07:59:34;;;;;;;13.07;7.43;;;;;;;1.30;64.74;94737.22;4136312;28;20088;-64
2023/01/26 08:01:36;;;;;;;9.30;5.78;;;;;;;1.37;64.75;94735.06;4135835;28;20054;-63
2023/01/26 08:03:38;;;;;;;9.65;6.35;;;;;;;1.49;64.31;94729.06;4126858;28;20085;-63
2023/01/26 08:05:42;;;;;;;8.90;6.60;;;;;;;1.55;64.44;94723.50;4145896;28;20415;-64
2023/01/26 08:07:43;;;;;;;;;;;;;;;1.47;63.86;94724.94;4147476;28;20384;-65
2023/01/26 08:09:45;;;;;;;9.43;6.25;;;;;;;1.47;63.96;94728.34;4144339;28;19921;-65
2023/01/26 08:11:47;;;;;;;9.63;6.65;;;;;;;1.51;64.20;94724.63;4135071;28;20081;-65
2023/01/26 08:13:49;;;;;;;11.13;6.18;;;;;;;1.47;64.31;94725.78;4146482;28;20064;-66
2023/01/26 08:15:50;;;;;;;9.00;5.57;;;;;;;1.52;64.22;94718.53;4147137;28;20052;-64
2023/01/26 08:17:53;;;;;;;8.68;6.53;;;;;;;1.62;64.36;94721.31;4146634;28;20073;-64
2023/01/26 08:19:55;;;;;;;10.05;5.93;;;;;;;1.52;63.90;94709.97;4146914;28;20134;-64
2023/01/26 08:21:56;;;;;;;12.15;6.93;;;;;;;1.54;65.00;94713.28;4146806;28;20103;-64
2023/01/26 08:24:00;;;;;;;9.55;6.43;;;;;;;1.52;64.71;94713.38;4146301;28;20053;-65
2023/01/26 08:26:04;;;;;;;8.70;5.80;;;;;;;1.49;64.33;94716.16;4146802;28;20054;-64
2023/01/26 08:28:06;;;;;;;11.52;7.05;;;;;;;1.58;64.85;94704.38;4127997;28;20123;-63
2023/01/26 08:30:08;;;;;;;10.70;6.15;;;;;;;1.68;64.88;94712.31;4146319;28;20045;-63
2023/01/26 08:32:11;;;;;;;13.90;6.07;;;;;;;1.73;64.82;94705.09;4146469;28;20053;-63
2023/01/26 08:34:12;;;;;;;10.82;6.50;;;;;;;1.73;64.15;94712.84;4146705;28;20061;-65
2023/01/26 08:36:14;;;;;;;10.05;5.65;;;;;;;1.78;63.77;94709.00;4146399;28;20370;-65
2023/01/26 08:38:16;;;;;;;8.07;5.50;;;;;;;1.67;63.35;94700.34;4146277;28;20458;-63
2023/01/26 08:40:18;;;;;;;10.57;6.00;;;;;;;1.62;63.88;94698.91;4128920;28;20089;-65
2023/01/26 08:42:19;;;;;;;7.45;5.18;;;;;;;1.67;63.58;94697.78;4145202;28;20046;-64
2023/01/26 08:44:23;;;;;;;12.02;6.68;;;;;;;1.69;63.45;94694.16;4145912;28;20073;-64
2023/01/26 08:46:25;;;;;;;8.30;5.18;;;;;;;1.60;64.21;94698.19;4146508;28;20420;-64
2023/01/26 08:48:28;;;;;;;9.82;5.88;;;;;;;1.60;63.87;94694.78;4146237;28;20045;-64
2023/01/26 08:50:29;;;;;;;10.00;5.63;;;;;;;1.59;63.35;94700.88;4146649;28;20057;-64
2023/01/26 08:52:31;;;;;;;8.40;5.63;;;;;;;1.61;63.49;94699.00;4144820;28;20291;-63
2023/01/26 08:54:33;;;;;;;7.10;5.10;;;;;;;1.67;62.98;94711.50;4144443;28;20081;-66
2023/01/26 08:56:34;;;;;;;8.13;4.93;;;;;;;1.61;63.11;94712.75;4145628;28;20046;-63
2023/01/26 08:58:36;;;;;;;8.00;4.78;;;;;;;1.68;63.17;94702.84;4145473;28;20046;-64
2023/01/26 09:00:38;;;;;;;11.10;5.00;;;;;;;1.74;63.04;94706.75;4145210;28;20610;-64
2023/01/26 09:02:40;;;;;;;9.25;5.40;;;;;;;1.80;62.90;94693.41;4145277;28;20100;-64
2023/01/26 09:04:41;;;;;;;8.50;5.00;;;;;;;1.84;62.56;94702.59;4146370;28;20061;-65
2023/01/26 09:06:43;;;;;;;8.15;4.90;;;;;;;1.87;62.39;94698.97;4145774;28;20054;-64
2023/01/26 09:08:45;;;;;;;6.80;4.43;;;;;;;1.86;62.39;94700.72;4145915;28;20057;-64
2023/01/26 09:10:46;;;;;;;7.40;4.43;;;;;;;1.77;62.87;94701.38;4146457;28;20547;-64
2023/01/26 09:12:48;;;;;;;7.28;4.35;;;;;;;1.75;62.58;94703.25;4145235;28;20128;-64
2023/01/26 09:14:49;;;;;;;6.20;4.15;;;;;;;1.73;62.13;94702.53;4145130;28;20088;-65
2023/01/26 09:16:51;;;;;;;6.85;4.07;;;;;;;1.69;62.56;94701.06;4145298;28;20053;-63
2023/01/26 09:18:53;;;;;;;5.47;3.85;;;;;;;1.75;62.70;94698.06;4145981;28;20092;-64
2023/01/26 09:21:01;;;;;;;7.30;4.05;;;;;;;1.86;62.55;94699.91;4145406;28;20096;-63
2023/01/26 09:23:03;;;;;;;7.10;4.68;;;;;;;1.94;62.34;94688.13;4146157;28;20053;-64
2023/01/26 09:25:05;;;;;;;5.25;3.88;;;;;;;1.84;62.32;94690.50;4145719;28;20060;-64
2023/01/26 09:27:07;;;;;;;5.90;3.85;;;;;;;1.91;62.43;94680.56;4127374;28;20046;-68
2023/01/26 09:29:09;;;;;;;9.13;4.20;;;;;;;1.92;62.10;94677.06;4144339;28;20125;-65
2023/01/26 09:31:11;;;;;;;9.35;4.40;;;;;;;1.92;62.15;94682.22;4144970;28;20053;-65
2023/01/26 09:33:13;;;;;;;7.10;4.15;;;;;;;1.88;61.96;94677.38;4145377;28;20530;-65
2023/01/26 09:35:15;;;;;;;6.32;4.10;;;;;;;1.92;62.10;94658.97;4134434;28;20061;-65
2023/01/26 09:37:17;;;;;;;7.10;4.38;;;;;;;1.97;61.58;94663.81;4133740;28;20052;-65
2023/01/26 09:39:19;;;;;;;8.75;4.25;;;;;;;1.99;61.78;94652.44;4139648;28;20157;-67
2023/01/26 09:41:39;;;;;;;6.57;4.22;;;;;;;2.07;61.93;94662.25;4130785;28;20046;-65
2023/01/26 09:44:03;;;;;;;5.85;3.90;;;;;;;2.01;61.91;94666.06;4133325;28;20057;-67
2023/01/26 09:46:08;;;;;;;5.43;3.83;;;;;;;1.97;62.10;94672.38;4145978;28;20408;-63
2023/01/26 09:48:33;;;;;;;5.90;4.03;;;;;;;2.01;62.39;94662.69;4145963;28;20042;-64
2023/01/26 09:50:40;;;;;;;4.50;3.35;;;;;;;2.05;62.21;94667.50;4144966;28;20352;-64
2023/01/26 09:52:53;;;;;;;5.63;3.85;;;;;;;2.01;62.02;94660.91;4145856;28;20546;-62
2023/01/26 09:54:58;;;;;;;5.25;3.58;;;;;;;1.87;62.34;94655.88;4145767;28;20440;-65
2023/01/26 09:57:12;;;;;;;5.75;3.20;;;;;;;1.73;63.02;94650.88;4145422;28;20111;-67
2023/01/26 09:59:37;;;;;;;4.85;3.70;;;;;;;1.78;63.27;94646.19;4145421;28;20057;-63
2023/01/26 10:02:06;;;;;;;9.23;4.18;;;;;;;1.91;62.89;94652.16;4145676;28;20500;-63
2023/01/26 10:04:22;;;;;;;6.05;4.00;;;;;;;1.88;63.21;94646.38;4142797;28;20141;-64
2023/01/26 10:06:27;;;;;;;5.88;3.55;;;;;;;1.82;62.69;94650.22;4122316;28;20053;-64
2023/01/26 10:08:29;;;;;;;6.22;3.63;;;;;;;1.91;62.96;94648.75;4143606;28;20086;-65
2023/01/26 10:10:40;;;;;;;4.93;3.60;;;;;;;1.87;62.48;94637.78;4140948;28;20065;-65
2023/01/26 10:12:42;;;;;;;4.88;3.42;;;;;;;1.91;62.84;94641.81;4131697;28;20058;-63
2023/01/26 10:14:48;;;;;;;5.55;3.55;;;;;;;1.96;62.32;94631.19;4134095;28;20093;-64
2023/01/26 10:16:52;;;;;;;5.07;3.33;;;;;;;1.94;62.35;94626.13;4149028;28;20132;-64
2023/01/26 10:18:59;;;;;;;4.00;3.08;;;;;;;1.82;62.50;94624.38;4148195;28;20096;-64
2023/01/26 10:21:03;;;;;;;7.32;3.40;;;;;;;1.75;63.14;94613.66;4130719;28;20054;-65
2023/01/26 10:23:10;;;;;;;5.30;3.30;;;;;;;1.78;63.12;94594.53;4131073;28;20582;-62
2023/01/26 10:25:27;;;;;;;4.90;3.42;;;;;;;1.86;62.91;94584.50;4142673;28;20504;-65
2023/01/26 10:27:28;;;;;;;5.70;3.33;;;;;;;1.77;63.17;94577.41;4127664;28;20050;-64
2023/01/26 10:29:30;;;;;;;5.13;3.55;;;;;;;1.56;63.51;94570.22;4132334;28;20436;-66
2023/01/26 10:31:33;;;;;;;4.90;3.25;;;;;;;1.58;63.97;94572.72;4141554;28;20535;-65